sensor_id;sensor_type;location;lat;lon;timestamp;P1;durP1;ratioP1;P2;durP2;ratioP2
75890;SDS011;64571;47.512;19.054;2024-03-08T00:00:11;23.00;;;11.02;;
75890;SDS011;64571;47.512;19.054;2024-03-08T00:03:18;22.35;;;11.00;;
75890;SDS011;64571;47.512;19.054;2024-03-08T00:06:21;27.63;;;11.37;;
75890;SDS011;64571;47.512;19.054;2024-03-08T00:09:24;23.20;;;10.48;;
75890;SDS011;64571;47.512;19.054;2024-03-08T00:12:26;26.33;;;11.93;;
75890;SDS011;64571;47.512;19.054;2024-03-08T00:15:29;23.75;;;10.82;;
75890;SDS011;64571;47.512;19.054;2024-03-08T00:18:33;23.08;;;10.80;;
75890;SDS011;64571;47.512;19.054;2024-03-08T00:21:35;25.23;;;11.20;;
75890;SDS011;64571;47.512;19.054;2024-03-08T00:24:38;23.77;;;11.85;;
75890;SDS011;64571;47.512;19.054;2024-03-08T00:27:41;26.60;;;11.88;;
75890;SDS011;64571;47.512;19.054;2024-03-08T00:30:43;21.25;;;10.95;;
75890;SDS011;64571;47.512;19.054;2024-03-08T00:33:47;25.23;;;12.30;;
75890;SDS011;64571;47.512;19.054;2024-03-08T00:36:50;26.23;;;12.57;;
75890;SDS011;64571;47.512;19.054;2024-03-08T00:39:54;26.52;;;12.70;;
75890;SDS011;64571;47.512;19.054;2024-03-08T00:42:57;22.45;;;11.80;;
75890;SDS011;64571;47.512;19.054;2024-03-08T00:45:59;27.95;;;11.57;;
75890;SDS011;64571;47.512;19.054;2024-03-08T00:49:03;24.63;;;11.98;;
75890;SDS011;64571;47.512;19.054;2024-03-08T00:52:06;26.03;;;12.13;;
75890;SDS011;64571;47.512;19.054;2024-03-08T00:55:10;24.60;;;11.98;;
75890;SDS011;64571;47.512;19.054;2024-03-08T00:58:13;25.15;;;12.40;;
75890;SDS011;64571;47.512;19.054;2024-03-08T01:01:16;25.88;;;11.80;;
75890;SDS011;64571;47.512;19.054;2024-03-08T01:04:21;27.55;;;11.30;;
75890;SDS011;64571;47.512;19.054;2024-03-08T01:07:25;25.07;;;12.80;;
75890;SDS011;64571;47.512;19.054;2024-03-08T01:10:28;23.75;;;11.50;;
75890;SDS011;64571;47.512;19.054;2024-03-08T01:13:30;24.10;;;11.80;;
75890;SDS011;64571;47.512;19.054;2024-03-08T01:16:33;24.70;;;11.07;;
75890;SDS011;64571;47.512;19.054;2024-03-08T01:19:36;27.65;;;13.32;;
75890;SDS011;64571;47.512;19.054;2024-03-08T01:22:38;27.00;;;13.03;;
75890;SDS011;64571;47.512;19.054;2024-03-08T01:25:42;24.45;;;11.57;;
75890;SDS011;64571;47.512;19.054;2024-03-08T01:28:46;28.45;;;12.25;;
75890;SDS011;64571;47.512;19.054;2024-03-08T01:31:48;28.50;;;12.60;;
75890;SDS011;64571;47.512;19.054;2024-03-08T01:34:51;25.27;;;12.15;;
75890;SDS011;64571;47.512;19.054;2024-03-08T01:37:54;29.83;;;12.27;;
75890;SDS011;64571;47.512;19.054;2024-03-08T01:40:56;26.95;;;12.13;;
75890;SDS011;64571;47.512;19.054;2024-03-08T01:43:59;28.95;;;14.75;;
75890;SDS011;64571;47.512;19.054;2024-03-08T01:47:01;33.60;;;13.77;;
75890;SDS011;64571;47.512;19.054;2024-03-08T01:50:04;30.75;;;13.27;;
75890;SDS011;64571;47.512;19.054;2024-03-08T01:53:08;29.57;;;14.30;;
75890;SDS011;64571;47.512;19.054;2024-03-08T01:56:17;30.70;;;13.45;;
75890;SDS011;64571;47.512;19.054;2024-03-08T01:59:20;30.55;;;13.35;;
75890;SDS011;64571;47.512;19.054;2024-03-08T02:02:23;32.72;;;14.43;;
75890;SDS011;64571;47.512;19.054;2024-03-08T02:05:26;31.20;;;14.25;;
75890;SDS011;64571;47.512;19.054;2024-03-08T02:08:28;35.10;;;15.13;;
75890;SDS011;64571;47.512;19.054;2024-03-08T02:11:32;34.30;;;14.45;;
75890;SDS011;64571;47.512;19.054;2024-03-08T02:14:36;36.85;;;15.98;;
75890;SDS011;64571;47.512;19.054;2024-03-08T02:17:39;34.38;;;14.20;;
75890;SDS011;64571;47.512;19.054;2024-03-08T02:20:41;46.97;;;18.55;;
75890;SDS011;64571;47.512;19.054;2024-03-08T02:23:45;32.07;;;15.00;;
75890;SDS011;64571;47.512;19.054;2024-03-08T02:26:48;34.97;;;15.68;;
75890;SDS011;64571;47.512;19.054;2024-03-08T02:29:52;33.08;;;15.68;;
75890;SDS011;64571;47.512;19.054;2024-03-08T02:33:00;38.53;;;16.25;;
75890;SDS011;64571;47.512;19.054;2024-03-08T02:36:03;34.95;;;16.62;;
75890;SDS011;64571;47.512;19.054;2024-03-08T02:39:06;43.37;;;16.17;;
75890;SDS011;64571;47.512;19.054;2024-03-08T02:42:09;36.42;;;15.48;;
75890;SDS011;64571;47.512;19.054;2024-03-08T02:45:12;34.17;;;16.02;;
75890;SDS011;64571;47.512;19.054;2024-03-08T02:48:15;33.80;;;15.00;;
75890;SDS011;64571;47.512;19.054;2024-03-08T02:51:18;38.05;;;16.23;;
75890;SDS011;64571;47.512;19.054;2024-03-08T02:54:22;37.57;;;17.03;;
75890;SDS011;64571;47.512;19.054;2024-03-08T02:57:26;37.45;;;17.17;;
75890;SDS011;64571;47.512;19.054;2024-03-08T03:00:29;40.97;;;18.95;;
75890;SDS011;64571;47.512;19.054;2024-03-08T03:03:36;36.97;;;17.48;;
75890;SDS011;64571;47.512;19.054;2024-03-08T03:06:39;38.95;;;16.05;;
75890;SDS011;64571;47.512;19.054;2024-03-08T03:09:41;45.73;;;19.37;;
75890;SDS011;64571;47.512;19.054;2024-03-08T03:12:46;41.55;;;16.33;;
75890;SDS011;64571;47.512;19.054;2024-03-08T03:15:50;40.42;;;17.40;;
75890;SDS011;64571;47.512;19.054;2024-03-08T03:18:53;43.17;;;17.05;;
75890;SDS011;64571;47.512;19.054;2024-03-08T03:21:56;46.55;;;18.65;;
75890;SDS011;64571;47.512;19.054;2024-03-08T03:24:59;39.63;;;17.33;;
75890;SDS011;64571;47.512;19.054;2024-03-08T03:28:03;46.90;;;18.27;;
75890;SDS011;64571;47.512;19.054;2024-03-08T03:31:07;41.45;;;19.00;;
75890;SDS011;64571;47.512;19.054;2024-03-08T03:34:12;38.75;;;16.65;;
75890;SDS011;64571;47.512;19.054;2024-03-08T03:37:15;41.08;;;16.25;;
75890;SDS011;64571;47.512;19.054;2024-03-08T03:40:19;45.07;;;17.83;;
75890;SDS011;64571;47.512;19.054;2024-03-08T03:43:23;43.83;;;17.87;;
75890;SDS011;64571;47.512;19.054;2024-03-08T03:46:25;46.50;;;20.08;;
75890;SDS011;64571;47.512;19.054;2024-03-08T03:49:29;43.17;;;17.17;;
75890;SDS011;64571;47.512;19.054;2024-03-08T03:52:31;41.33;;;18.35;;
75890;SDS011;64571;47.512;19.054;2024-03-08T03:55:34;44.80;;;19.37;;
75890;SDS011;64571;47.512;19.054;2024-03-08T03:58:39;41.58;;;17.50;;
75890;SDS011;64571;47.512;19.054;2024-03-08T04:01:42;42.47;;;19.48;;
75890;SDS011;64571;47.512;19.054;2024-03-08T04:04:46;39.50;;;16.70;;
75890;SDS011;64571;47.512;19.054;2024-03-08T04:07:49;49.05;;;20.37;;
75890;SDS011;64571;47.512;19.054;2024-03-08T04:10:52;48.30;;;18.73;;
75890;SDS011;64571;47.512;19.054;2024-03-08T04:13:54;45.60;;;20.25;;
75890;SDS011;64571;47.512;19.054;2024-03-08T04:16:57;45.75;;;18.98;;
75890;SDS011;64571;47.512;19.054;2024-03-08T04:20:00;46.67;;;20.48;;
75890;SDS011;64571;47.512;19.054;2024-03-08T04:23:03;45.70;;;19.27;;
75890;SDS011;64571;47.512;19.054;2024-03-08T04:26:06;40.67;;;18.80;;
75890;SDS011;64571;47.512;19.054;2024-03-08T04:29:09;46.47;;;20.52;;
75890;SDS011;64571;47.512;19.054;2024-03-08T04:32:12;48.13;;;19.67;;
75890;SDS011;64571;47.512;19.054;2024-03-08T04:35:16;54.00;;;19.58;;
75890;SDS011;64571;47.512;19.054;2024-03-08T04:38:18;45.15;;;18.70;;
75890;SDS011;64571;47.512;19.054;2024-03-08T04:41:21;42.27;;;18.20;;
75890;SDS011;64571;47.512;19.054;2024-03-08T04:44:25;50.33;;;19.55;;
75890;SDS011;64571;47.512;19.054;2024-03-08T04:47:28;41.97;;;18.27;;
75890;SDS011;64571;47.512;19.054;2024-03-08T04:50:31;44.05;;;18.80;;
75890;SDS011;64571;47.512;19.054;2024-03-08T04:53:34;45.70;;;18.92;;
75890;SDS011;64571;47.512;19.054;2024-03-08T04:56:36;45.10;;;19.90;;
75890;SDS011;64571;47.512;19.054;2024-03-08T04:59:39;48.30;;;20.15;;
75890;SDS011;64571;47.512;19.054;2024-03-08T05:02:42;42.47;;;18.67;;
75890;SDS011;64571;47.512;19.054;2024-03-08T05:05:44;43.22;;;18.85;;
75890;SDS011;64571;47.512;19.054;2024-03-08T05:08:47;50.38;;;19.27;;
75890;SDS011;64571;47.512;19.054;2024-03-08T05:11:50;49.27;;;18.73;;
75890;SDS011;64571;47.512;19.054;2024-03-08T05:14:52;49.03;;;20.37;;
75890;SDS011;64571;47.512;19.054;2024-03-08T05:17:56;44.60;;;21.65;;
75890;SDS011;64571;47.512;19.054;2024-03-08T05:21:00;42.42;;;17.70;;
75890;SDS011;64571;47.512;19.054;2024-03-08T05:24:06;49.17;;;19.35;;
75890;SDS011;64571;47.512;19.054;2024-03-08T05:27:09;46.83;;;18.60;;
75890;SDS011;64571;47.512;19.054;2024-03-08T05:30:12;45.67;;;19.17;;
75890;SDS011;64571;47.512;19.054;2024-03-08T05:33:17;48.65;;;20.40;;
75890;SDS011;64571;47.512;19.054;2024-03-08T05:36:21;44.58;;;19.02;;
75890;SDS011;64571;47.512;19.054;2024-03-08T05:39:24;43.67;;;17.85;;
75890;SDS011;64571;47.512;19.054;2024-03-08T05:42:27;45.43;;;18.17;;
75890;SDS011;64571;47.512;19.054;2024-03-08T05:45:30;45.22;;;19.73;;
75890;SDS011;64571;47.512;19.054;2024-03-08T05:48:33;49.03;;;19.27;;
75890;SDS011;64571;47.512;19.054;2024-03-08T05:51:36;47.20;;;19.87;;
75890;SDS011;64571;47.512;19.054;2024-03-08T05:54:41;52.00;;;20.30;;
75890;SDS011;64571;47.512;19.054;2024-03-08T05:57:44;50.13;;;19.90;;
75890;SDS011;64571;47.512;19.054;2024-03-08T06:00:48;43.87;;;18.98;;
75890;SDS011;64571;47.512;19.054;2024-03-08T06:03:55;46.10;;;19.12;;
75890;SDS011;64571;47.512;19.054;2024-03-08T06:06:58;47.45;;;19.40;;
75890;SDS011;64571;47.512;19.054;2024-03-08T06:10:01;50.05;;;18.98;;
75890;SDS011;64571;47.512;19.054;2024-03-08T06:13:05;44.47;;;20.27;;
75890;SDS011;64571;47.512;19.054;2024-03-08T06:16:08;48.25;;;19.77;;
75890;SDS011;64571;47.512;19.054;2024-03-08T06:19:11;41.92;;;19.10;;
75890;SDS011;64571;47.512;19.054;2024-03-08T06:22:14;48.45;;;20.62;;
75890;SDS011;64571;47.512;19.054;2024-03-08T06:25:17;46.00;;;18.95;;
75890;SDS011;64571;47.512;19.054;2024-03-08T06:28:19;47.13;;;19.43;;
75890;SDS011;64571;47.512;19.054;2024-03-08T06:31:22;44.90;;;20.15;;
75890;SDS011;64571;47.512;19.054;2024-03-08T06:34:25;51.50;;;20.37;;
75890;SDS011;64571;47.512;19.054;2024-03-08T06:37:27;44.63;;;18.37;;
75890;SDS011;64571;47.512;19.054;2024-03-08T06:40:30;40.50;;;18.33;;
75890;SDS011;64571;47.512;19.054;2024-03-08T06:43:33;42.70;;;19.57;;
75890;SDS011;64571;47.512;19.054;2024-03-08T06:46:36;47.95;;;19.42;;
75890;SDS011;64571;47.512;19.054;2024-03-08T06:49:40;49.55;;;20.92;;
75890;SDS011;64571;47.512;19.054;2024-03-08T06:52:44;42.78;;;19.35;;
75890;SDS011;64571;47.512;19.054;2024-03-08T06:55:48;48.85;;;19.08;;
75890;SDS011;64571;47.512;19.054;2024-03-08T06:58:51;50.13;;;20.83;;
75890;SDS011;64571;47.512;19.054;2024-03-08T07:01:54;46.25;;;18.95;;
75890;SDS011;64571;47.512;19.054;2024-03-08T07:04:57;44.60;;;19.35;;
75890;SDS011;64571;47.512;19.054;2024-03-08T07:08:00;44.72;;;18.40;;
75890;SDS011;64571;47.512;19.054;2024-03-08T07:11:03;40.72;;;18.17;;
75890;SDS011;64571;47.512;19.054;2024-03-08T07:14:05;44.20;;;17.27;;
75890;SDS011;64571;47.512;19.054;2024-03-08T07:17:09;42.53;;;18.52;;
75890;SDS011;64571;47.512;19.054;2024-03-08T07:20:11;49.05;;;20.62;;
75890;SDS011;64571;47.512;19.054;2024-03-08T07:23:16;42.67;;;17.42;;
75890;SDS011;64571;47.512;19.054;2024-03-08T07:26:37;48.80;;;19.80;;
75890;SDS011;64571;47.512;19.054;2024-03-08T07:29:41;47.77;;;19.07;;
75890;SDS011;64571;47.512;19.054;2024-03-08T07:32:43;47.35;;;19.35;;
75890;SDS011;64571;47.512;19.054;2024-03-08T07:35:46;54.65;;;20.35;;
75890;SDS011;64571;47.512;19.054;2024-03-08T07:38:49;46.33;;;19.25;;
75890;SDS011;64571;47.512;19.054;2024-03-08T07:41:52;56.60;;;26.40;;
75890;SDS011;64571;47.512;19.054;2024-03-08T07:44:55;50.03;;;20.83;;
75890;SDS011;64571;47.512;19.054;2024-03-08T07:47:58;53.78;;;21.52;;
75890;SDS011;64571;47.512;19.054;2024-03-08T07:51:00;52.40;;;20.00;;
75890;SDS011;64571;47.512;19.054;2024-03-08T07:54:05;63.33;;;23.60;;
75890;SDS011;64571;47.512;19.054;2024-03-08T07:57:07;57.70;;;20.60;;
75890;SDS011;64571;47.512;19.054;2024-03-08T08:00:10;50.57;;;20.57;;
75890;SDS011;64571;47.512;19.054;2024-03-08T08:03:20;49.53;;;20.23;;
75890;SDS011;64571;47.512;19.054;2024-03-08T08:06:23;53.78;;;21.85;;
75890;SDS011;64571;47.512;19.054;2024-03-08T08:09:26;48.83;;;20.88;;
75890;SDS011;64571;47.512;19.054;2024-03-08T08:12:36;56.97;;;21.23;;
75890;SDS011;64571;47.512;19.054;2024-03-08T08:15:39;47.47;;;20.33;;
75890;SDS011;64571;47.512;19.054;2024-03-08T08:18:42;57.97;;;21.58;;
75890;SDS011;64571;47.512;19.054;2024-03-08T08:21:44;54.90;;;23.27;;
75890;SDS011;64571;47.512;19.054;2024-03-08T08:24:48;52.88;;;22.02;;
75890;SDS011;64571;47.512;19.054;2024-03-08T08:27:50;49.30;;;21.35;;
75890;SDS011;64571;47.512;19.054;2024-03-08T08:30:54;55.47;;;21.23;;
75890;SDS011;64571;47.512;19.054;2024-03-08T08:33:57;52.95;;;20.98;;
75890;SDS011;64571;47.512;19.054;2024-03-08T08:37:02;48.35;;;21.70;;
75890;SDS011;64571;47.512;19.054;2024-03-08T08:40:05;55.45;;;21.67;;
75890;SDS011;64571;47.512;19.054;2024-03-08T08:43:13;54.35;;;23.05;;
75890;SDS011;64571;47.512;19.054;2024-03-08T08:46:17;51.20;;;22.17;;
75890;SDS011;64571;47.512;19.054;2024-03-08T08:49:22;56.15;;;22.25;;
75890;SDS011;64571;47.512;19.054;2024-03-08T08:52:26;52.13;;;21.52;;
75890;SDS011;64571;47.512;19.054;2024-03-08T08:55:28;55.22;;;23.45;;
75890;SDS011;64571;47.512;19.054;2024-03-08T08:58:35;56.95;;;22.27;;
75890;SDS011;64571;47.512;19.054;2024-03-08T09:01:38;51.67;;;21.93;;
75890;SDS011;64571;47.512;19.054;2024-03-08T09:04:41;56.53;;;22.80;;
75890;SDS011;64571;47.512;19.054;2024-03-08T09:07:43;64.15;;;23.85;;
75890;SDS011;64571;47.512;19.054;2024-03-08T09:10:49;54.15;;;21.50;;
75890;SDS011;64571;47.512;19.054;2024-03-08T09:13:53;57.75;;;24.75;;
75890;SDS011;64571;47.512;19.054;2024-03-08T09:16:56;59.80;;;22.47;;
75890;SDS011;64571;47.512;19.054;2024-03-08T09:19:59;57.45;;;21.08;;
75890;SDS011;64571;47.512;19.054;2024-03-08T09:23:02;57.17;;;22.67;;
75890;SDS011;64571;47.512;19.054;2024-03-08T09:26:06;56.15;;;21.92;;
75890;SDS011;64571;47.512;19.054;2024-03-08T09:29:24;50.20;;;21.85;;
75890;SDS011;64571;47.512;19.054;2024-03-08T09:32:26;59.00;;;21.60;;
75890;SDS011;64571;47.512;19.054;2024-03-08T09:35:29;54.58;;;21.85;;
75890;SDS011;64571;47.512;19.054;2024-03-08T09:38:32;58.65;;;21.83;;
75890;SDS011;64571;47.512;19.054;2024-03-08T09:41:36;54.17;;;22.33;;
75890;SDS011;64571;47.512;19.054;2024-03-08T09:44:47;49.38;;;20.85;;
75890;SDS011;64571;47.512;19.054;2024-03-08T09:47:50;60.70;;;21.43;;
75890;SDS011;64571;47.512;19.054;2024-03-08T09:50:53;53.90;;;20.58;;
75890;SDS011;64571;47.512;19.054;2024-03-08T09:53:57;50.08;;;20.62;;
75890;SDS011;64571;47.512;19.054;2024-03-08T09:57:03;50.33;;;20.10;;
75890;SDS011;64571;47.512;19.054;2024-03-08T10:00:07;52.45;;;20.75;;
75890;SDS011;64571;47.512;19.054;2024-03-08T10:03:27;50.23;;;20.17;;
75890;SDS011;64571;47.512;19.054;2024-03-08T10:06:30;54.33;;;22.23;;
75890;SDS011;64571;47.512;19.054;2024-03-08T10:09:33;54.60;;;22.10;;
75890;SDS011;64571;47.512;19.054;2024-03-08T10:12:36;53.35;;;22.23;;
75890;SDS011;64571;47.512;19.054;2024-03-08T10:15:39;50.88;;;22.10;;
75890;SDS011;64571;47.512;19.054;2024-03-08T10:18:42;56.03;;;20.77;;
75890;SDS011;64571;47.512;19.054;2024-03-08T10:21:50;53.55;;;19.92;;
75890;SDS011;64571;47.512;19.054;2024-03-08T10:24:56;53.75;;;22.80;;
75890;SDS011;64571;47.512;19.054;2024-03-08T10:27:59;50.60;;;22.73;;
75890;SDS011;64571;47.512;19.054;2024-03-08T10:31:01;53.40;;;22.87;;
75890;SDS011;64571;47.512;19.054;2024-03-08T10:34:04;51.77;;;22.70;;
75890;SDS011;64571;47.512;19.054;2024-03-08T10:37:07;46.97;;;21.25;;
75890;SDS011;64571;47.512;19.054;2024-03-08T10:40:19;52.55;;;21.25;;
75890;SDS011;64571;47.512;19.054;2024-03-08T10:43:23;45.97;;;19.98;;
75890;SDS011;64571;47.512;19.054;2024-03-08T10:46:30;48.72;;;22.40;;
75890;SDS011;64571;47.512;19.054;2024-03-08T10:49:55;49.37;;;19.63;;
75890;SDS011;64571;47.512;19.054;2024-03-08T10:53:08;51.55;;;20.55;;
75890;SDS011;64571;47.512;19.054;2024-03-08T10:56:13;42.85;;;19.30;;
75890;SDS011;64571;47.512;19.054;2024-03-08T10:59:17;42.83;;;17.80;;
75890;SDS011;64571;47.512;19.054;2024-03-08T11:02:21;40.58;;;17.25;;
75890;SDS011;64571;47.512;19.054;2024-03-08T11:05:40;39.20;;;17.33;;
75890;SDS011;64571;47.512;19.054;2024-03-08T11:08:48;38.42;;;17.35;;
75890;SDS011;64571;47.512;19.054;2024-03-08T11:12:18;41.13;;;18.75;;
75890;SDS011;64571;47.512;19.054;2024-03-08T11:15:31;39.55;;;16.92;;
75890;SDS011;64571;47.512;19.054;2024-03-08T11:18:35;43.70;;;18.60;;
75890;SDS011;64571;47.512;19.054;2024-03-08T11:21:37;49.20;;;18.53;;
75890;SDS011;64571;47.512;19.054;2024-03-08T11:24:44;43.22;;;18.60;;
75890;SDS011;64571;47.512;19.054;2024-03-08T11:27:53;45.30;;;18.35;;
75890;SDS011;64571;47.512;19.054;2024-03-08T11:34:15;43.25;;;20.25;;
75890;SDS011;64571;47.512;19.054;2024-03-08T11:37:19;40.43;;;17.13;;
75890;SDS011;64571;47.512;19.054;2024-03-08T11:40:23;42.45;;;18.55;;
75890;SDS011;64571;47.512;19.054;2024-03-08T11:43:26;37.10;;;18.10;;
75890;SDS011;64571;47.512;19.054;2024-03-08T11:46:29;37.90;;;17.95;;
75890;SDS011;64571;47.512;19.054;2024-03-08T11:49:32;38.88;;;16.67;;
75890;SDS011;64571;47.512;19.054;2024-03-08T11:52:35;41.93;;;17.40;;
75890;SDS011;64571;47.512;19.054;2024-03-08T11:55:38;40.08;;;18.58;;
75890;SDS011;64571;47.512;19.054;2024-03-08T11:58:41;47.45;;;19.35;;
75890;SDS011;64571;47.512;19.054;2024-03-08T12:01:56;46.28;;;18.12;;
75890;SDS011;64571;47.512;19.054;2024-03-08T12:05:16;38.58;;;17.52;;
75890;SDS011;64571;47.512;19.054;2024-03-08T12:08:22;38.87;;;17.93;;
75890;SDS011;64571;47.512;19.054;2024-03-08T12:11:24;43.40;;;18.37;;
75890;SDS011;64571;47.512;19.054;2024-03-08T12:14:30;39.42;;;17.20;;
75890;SDS011;64571;47.512;19.054;2024-03-08T12:17:34;43.92;;;20.92;;
75890;SDS011;64571;47.512;19.054;2024-03-08T12:20:38;47.85;;;20.88;;
75890;SDS011;64571;47.512;19.054;2024-03-08T12:23:41;44.83;;;20.77;;
75890;SDS011;64571;47.512;19.054;2024-03-08T12:26:45;41.28;;;18.87;;
75890;SDS011;64571;47.512;19.054;2024-03-08T12:29:50;43.50;;;20.27;;
75890;SDS011;64571;47.512;19.054;2024-03-08T12:32:54;44.92;;;21.00;;
75890;SDS011;64571;47.512;19.054;2024-03-08T12:36:01;45.05;;;21.83;;
75890;SDS011;64571;47.512;19.054;2024-03-08T12:39:07;40.33;;;19.33;;
75890;SDS011;64571;47.512;19.054;2024-03-08T12:42:14;45.03;;;19.35;;
75890;SDS011;64571;47.512;19.054;2024-03-08T12:45:17;41.92;;;19.48;;
75890;SDS011;64571;47.512;19.054;2024-03-08T12:48:21;40.65;;;19.52;;
75890;SDS011;64571;47.512;19.054;2024-03-08T12:51:24;36.22;;;16.48;;
75890;SDS011;64571;47.512;19.054;2024-03-08T12:54:26;37.53;;;16.50;;
75890;SDS011;64571;47.512;19.054;2024-03-08T12:57:30;37.30;;;17.73;;
75890;SDS011;64571;47.512;19.054;2024-03-08T13:00:33;36.90;;;18.95;;
75890;SDS011;64571;47.512;19.054;2024-03-08T13:03:39;37.20;;;18.20;;
75890;SDS011;64571;47.512;19.054;2024-03-08T13:06:43;35.67;;;18.08;;
75890;SDS011;64571;47.512;19.054;2024-03-08T13:09:45;32.97;;;17.07;;
75890;SDS011;64571;47.512;19.054;2024-03-08T13:12:48;36.70;;;17.45;;
75890;SDS011;64571;47.512;19.054;2024-03-08T13:15:55;35.45;;;18.70;;
75890;SDS011;64571;47.512;19.054;2024-03-08T13:18:59;33.40;;;18.08;;
75890;SDS011;64571;47.512;19.054;2024-03-08T13:22:01;29.33;;;15.73;;
75890;SDS011;64571;47.512;19.054;2024-03-08T13:25:07;30.57;;;15.97;;
75890;SDS011;64571;47.512;19.054;2024-03-08T13:28:15;31.92;;;15.48;;
75890;SDS011;64571;47.512;19.054;2024-03-08T13:31:19;36.03;;;16.08;;
75890;SDS011;64571;47.512;19.054;2024-03-08T13:34:22;28.73;;;15.75;;
75890;SDS011;64571;47.512;19.054;2024-03-08T13:37:31;41.55;;;19.83;;
75890;SDS011;64571;47.512;19.054;2024-03-08T13:40:35;38.83;;;20.03;;
75890;SDS011;64571;47.512;19.054;2024-03-08T13:43:38;38.35;;;18.67;;
75890;SDS011;64571;47.512;19.054;2024-03-08T13:46:42;45.83;;;20.77;;
75890;SDS011;64571;47.512;19.054;2024-03-08T13:49:45;43.30;;;20.08;;
75890;SDS011;64571;47.512;19.054;2024-03-08T13:52:48;42.20;;;19.83;;
75890;SDS011;64571;47.512;19.054;2024-03-08T13:55:58;39.10;;;18.83;;
75890;SDS011;64571;47.512;19.054;2024-03-08T13:59:02;45.78;;;20.05;;
75890;SDS011;64571;47.512;19.054;2024-03-08T14:02:05;46.72;;;19.62;;
75890;SDS011;64571;47.512;19.054;2024-03-08T14:05:09;38.72;;;17.60;;
75890;SDS011;64571;47.512;19.054;2024-03-08T14:08:13;39.00;;;18.15;;
75890;SDS011;64571;47.512;19.054;2024-03-08T14:11:16;39.77;;;17.87;;
75890;SDS011;64571;47.512;19.054;2024-03-08T14:14:21;34.75;;;16.77;;
75890;SDS011;64571;47.512;19.054;2024-03-08T14:17:27;39.63;;;21.00;;
75890;SDS011;64571;47.512;19.054;2024-03-08T14:20:33;36.95;;;17.50;;
75890;SDS011;64571;47.512;19.054;2024-03-08T14:23:36;37.03;;;17.40;;
75890;SDS011;64571;47.512;19.054;2024-03-08T14:26:42;41.30;;;17.83;;
75890;SDS011;64571;47.512;19.054;2024-03-08T14:29:45;39.05;;;18.67;;
75890;SDS011;64571;47.512;19.054;2024-03-08T14:32:48;34.67;;;17.23;;
75890;SDS011;64571;47.512;19.054;2024-03-08T14:35:51;42.13;;;16.87;;
75890;SDS011;64571;47.512;19.054;2024-03-08T14:38:53;33.50;;;16.73;;
75890;SDS011;64571;47.512;19.054;2024-03-08T14:41:56;37.70;;;16.53;;
75890;SDS011;64571;47.512;19.054;2024-03-08T14:45:00;35.15;;;16.87;;
75890;SDS011;64571;47.512;19.054;2024-03-08T14:48:03;31.75;;;16.00;;
75890;SDS011;64571;47.512;19.054;2024-03-08T14:51:07;38.92;;;18.15;;
75890;SDS011;64571;47.512;19.054;2024-03-08T14:54:12;40.17;;;18.33;;
75890;SDS011;64571;47.512;19.054;2024-03-08T14:57:16;38.37;;;18.50;;
75890;SDS011;64571;47.512;19.054;2024-03-08T15:00:19;39.83;;;18.25;;
75890;SDS011;64571;47.512;19.054;2024-03-08T15:03:29;37.90;;;18.58;;
75890;SDS011;64571;47.512;19.054;2024-03-08T15:06:32;43.17;;;18.12;;
75890;SDS011;64571;47.512;19.054;2024-03-08T15:09:35;42.62;;;19.37;;
75890;SDS011;64571;47.512;19.054;2024-03-08T15:12:42;38.03;;;18.97;;
75890;SDS011;64571;47.512;19.054;2024-03-08T15:15:53;33.60;;;16.98;;
75890;SDS011;64571;47.512;19.054;2024-03-08T15:19:00;38.20;;;18.15;;
75890;SDS011;64571;47.512;19.054;2024-03-08T15:22:02;38.47;;;17.48;;
75890;SDS011;64571;47.512;19.054;2024-03-08T15:25:05;37.33;;;18.42;;
75890;SDS011;64571;47.512;19.054;2024-03-08T15:28:08;40.77;;;18.60;;
75890;SDS011;64571;47.512;19.054;2024-03-08T15:31:17;34.63;;;17.50;;
75890;SDS011;64571;47.512;19.054;2024-03-08T15:34:22;40.50;;;17.40;;
75890;SDS011;64571;47.512;19.054;2024-03-08T15:37:31;34.40;;;17.17;;
75890;SDS011;64571;47.512;19.054;2024-03-08T15:40:33;34.83;;;17.45;;
75890;SDS011;64571;47.512;19.054;2024-03-08T15:43:38;38.83;;;17.53;;
75890;SDS011;64571;47.512;19.054;2024-03-08T15:46:42;37.63;;;17.45;;
75890;SDS011;64571;47.512;19.054;2024-03-08T15:49:44;39.45;;;18.25;;
75890;SDS011;64571;47.512;19.054;2024-03-08T15:52:47;34.70;;;15.18;;
75890;SDS011;64571;47.512;19.054;2024-03-08T15:55:50;38.58;;;17.48;;
75890;SDS011;64571;47.512;19.054;2024-03-08T15:58:52;43.20;;;17.57;;
75890;SDS011;64571;47.512;19.054;2024-03-08T16:01:56;43.13;;;17.50;;
75890;SDS011;64571;47.512;19.054;2024-03-08T16:05:00;39.25;;;18.25;;
75890;SDS011;64571;47.512;19.054;2024-03-08T16:08:03;43.75;;;19.80;;
75890;SDS011;64571;47.512;19.054;2024-03-08T16:11:07;40.67;;;17.62;;
75890;SDS011;64571;47.512;19.054;2024-03-08T16:14:10;39.47;;;19.13;;
75890;SDS011;64571;47.512;19.054;2024-03-08T16:17:13;40.50;;;17.40;;
75890;SDS011;64571;47.512;19.054;2024-03-08T16:20:16;39.45;;;18.67;;
75890;SDS011;64571;47.512;19.054;2024-03-08T16:23:19;36.08;;;17.23;;
75890;SDS011;64571;47.512;19.054;2024-03-08T16:26:23;37.40;;;17.42;;
75890;SDS011;64571;47.512;19.054;2024-03-08T16:29:27;41.23;;;17.17;;
75890;SDS011;64571;47.512;19.054;2024-03-08T16:32:30;38.78;;;17.35;;
75890;SDS011;64571;47.512;19.054;2024-03-08T16:35:32;38.30;;;16.92;;
75890;SDS011;64571;47.512;19.054;2024-03-08T16:38:35;40.25;;;18.27;;
75890;SDS011;64571;47.512;19.054;2024-03-08T16:41:40;43.08;;;18.67;;
75890;SDS011;64571;47.512;19.054;2024-03-08T16:44:43;39.03;;;17.07;;
75890;SDS011;64571;47.512;19.054;2024-03-08T16:47:46;37.88;;;17.25;;
75890;SDS011;64571;47.512;19.054;2024-03-08T16:50:49;37.15;;;18.20;;
75890;SDS011;64571;47.512;19.054;2024-03-08T16:53:52;38.85;;;19.02;;
75890;SDS011;64571;47.512;19.054;2024-03-08T16:56:55;39.85;;;18.67;;
75890;SDS011;64571;47.512;19.054;2024-03-08T16:59:58;39.67;;;17.27;;
75890;SDS011;64571;47.512;19.054;2024-03-08T17:03:01;35.47;;;16.58;;
75890;SDS011;64571;47.512;19.054;2024-03-08T17:06:05;37.33;;;17.15;;
75890;SDS011;64571;47.512;19.054;2024-03-08T17:09:07;37.78;;;17.25;;
75890;SDS011;64571;47.512;19.054;2024-03-08T17:12:14;37.78;;;18.02;;
75890;SDS011;64571;47.512;19.054;2024-03-08T17:15:21;38.10;;;17.43;;
75890;SDS011;64571;47.512;19.054;2024-03-08T17:18:25;38.53;;;16.90;;
75890;SDS011;64571;47.512;19.054;2024-03-08T17:21:28;37.78;;;17.75;;
75890;SDS011;64571;47.512;19.054;2024-03-08T17:24:31;42.33;;;17.67;;
75890;SDS011;64571;47.512;19.054;2024-03-08T17:27:34;39.88;;;20.30;;
75890;SDS011;64571;47.512;19.054;2024-03-08T17:30:38;36.83;;;17.83;;
75890;SDS011;64571;47.512;19.054;2024-03-08T17:33:46;42.90;;;19.55;;
75890;SDS011;64571;47.512;19.054;2024-03-08T17:36:50;35.78;;;17.50;;
75890;SDS011;64571;47.512;19.054;2024-03-08T17:39:54;35.63;;;18.75;;
75890;SDS011;64571;47.512;19.054;2024-03-08T17:42:58;43.10;;;19.85;;